Pisgah, Illinois
Current Conditions -  °F | °C
As of 1:15 PM on Thursday 23 Oct 2014 (Local Time) from KIJX Reporting Station
Clear Clear  
Wind Chill: 61°   Ceiling: Unl
Heat Index: 61°   Visibility: 10mi
Dew Point: 45°   Wind: 7mph
Humidity: 56%   Direction: 180°S
Pressure: 30.14"   Gusts: NA
Location:  39.7413°N, 90.2138°W
Report Text: KIJX 231815Z AUTO 18006KT 10SM CLR 16/07 A3014 RMK AO2 T01600073
Loading
Personal Weather Stations






























Interactive Weather Map
Tropical Storm Tracking
New forecast layout! Learn more

10-Day Weather Forecast

Advertisements
Track Severe Weather on mobile